sensor_id;sensor_type;location;lat;lon;timestamp;P1;durP1;ratioP1;P2;durP2;ratioP2
12840;SDS011;6487;48.626;12.486;2023-11-21T00:00:08;7.67;;;2.30;;
12840;SDS011;6487;48.626;12.486;2023-11-21T00:02:39;3.40;;;2.27;;
12840;SDS011;6487;48.626;12.486;2023-11-21T00:05:09;6.30;;;2.60;;
12840;SDS011;6487;48.626;12.486;2023-11-21T00:07:40;5.77;;;2.30;;
12840;SDS011;6487;48.626;12.486;2023-11-21T00:10:10;6.07;;;2.40;;
12840;SDS011;6487;48.626;12.486;2023-11-21T00:12:41;7.57;;;2.50;;
12840;SDS011;6487;48.626;12.486;2023-11-21T00:15:10;8.17;;;2.50;;
12840;SDS011;6487;48.626;12.486;2023-11-21T00:17:39;6.20;;;2.00;;
12840;SDS011;6487;48.626;12.486;2023-11-21T00:20:09;6.43;;;2.23;;
12840;SDS011;6487;48.626;12.486;2023-11-21T00:22:40;6.10;;;2.10;;
12840;SDS011;6487;48.626;12.486;2023-11-21T00:25:09;4.67;;;1.73;;
12840;SDS011;6487;48.626;12.486;2023-11-21T00:27:39;4.83;;;1.83;;
12840;SDS011;6487;48.626;12.486;2023-11-21T00:30:08;5.80;;;2.07;;
12840;SDS011;6487;48.626;12.486;2023-11-21T00:32:38;5.60;;;2.37;;
12840;SDS011;6487;48.626;12.486;2023-11-21T00:35:06;8.53;;;1.93;;
12840;SDS011;6487;48.626;12.486;2023-11-21T00:37:37;4.23;;;1.90;;
12840;SDS011;6487;48.626;12.486;2023-11-21T00:40:07;5.80;;;1.87;;
12840;SDS011;6487;48.626;12.486;2023-11-21T00:42:37;5.37;;;2.13;;
12840;SDS011;6487;48.626;12.486;2023-11-21T00:45:06;5.93;;;1.97;;
12840;SDS011;6487;48.626;12.486;2023-11-21T00:47:36;5.57;;;1.83;;
12840;SDS011;6487;48.626;12.486;2023-11-21T00:50:05;5.30;;;2.50;;
12840;SDS011;6487;48.626;12.486;2023-11-21T00:52:35;4.40;;;1.90;;
12840;SDS011;6487;48.626;12.486;2023-11-21T00:55:05;4.83;;;2.07;;
12840;SDS011;6487;48.626;12.486;2023-11-21T00:57:35;5.27;;;2.17;;
12840;SDS011;6487;48.626;12.486;2023-11-21T01:00:05;7.03;;;2.10;;
12840;SDS011;6487;48.626;12.486;2023-11-21T01:02:37;6.50;;;2.27;;
12840;SDS011;6487;48.626;12.486;2023-11-21T01:05:06;4.13;;;1.67;;
12840;SDS011;6487;48.626;12.486;2023-11-21T01:07:35;6.37;;;2.13;;
12840;SDS011;6487;48.626;12.486;2023-11-21T01:10:06;8.10;;;2.67;;
12840;SDS011;6487;48.626;12.486;2023-11-21T01:12:36;5.10;;;2.20;;
12840;SDS011;6487;48.626;12.486;2023-11-21T01:15:06;6.00;;;2.20;;
12840;SDS011;6487;48.626;12.486;2023-11-21T01:17:35;9.97;;;2.33;;
12840;SDS011;6487;48.626;12.486;2023-11-21T01:20:05;5.00;;;2.23;;
12840;SDS011;6487;48.626;12.486;2023-11-21T01:22:40;5.10;;;2.53;;
12840;SDS011;6487;48.626;12.486;2023-11-21T01:25:11;3.57;;;1.90;;
12840;SDS011;6487;48.626;12.486;2023-11-21T01:27:41;5.40;;;2.20;;
12840;SDS011;6487;48.626;12.486;2023-11-21T01:30:09;6.77;;;2.40;;
12840;SDS011;6487;48.626;12.486;2023-11-21T01:32:38;7.63;;;2.83;;
12840;SDS011;6487;48.626;12.486;2023-11-21T01:35:07;5.37;;;2.60;;
12840;SDS011;6487;48.626;12.486;2023-11-21T01:37:36;7.97;;;2.90;;
12840;SDS011;6487;48.626;12.486;2023-11-21T01:40:06;6.83;;;2.60;;
12840;SDS011;6487;48.626;12.486;2023-11-21T01:42:42;5.47;;;2.77;;
12840;SDS011;6487;48.626;12.486;2023-11-21T01:45:13;7.33;;;2.70;;
12840;SDS011;6487;48.626;12.486;2023-11-21T01:47:42;5.97;;;2.73;;
12840;SDS011;6487;48.626;12.486;2023-11-21T01:50:13;10.03;;;2.50;;
12840;SDS011;6487;48.626;12.486;2023-11-21T01:52:45;8.63;;;2.40;;
12840;SDS011;6487;48.626;12.486;2023-11-21T01:55:14;6.07;;;2.07;;
12840;SDS011;6487;48.626;12.486;2023-11-21T01:57:55;4.57;;;2.17;;
12840;SDS011;6487;48.626;12.486;2023-11-21T02:00:24;5.87;;;2.47;;
12840;SDS011;6487;48.626;12.486;2023-11-21T02:02:55;6.40;;;2.30;;
12840;SDS011;6487;48.626;12.486;2023-11-21T02:05:24;6.27;;;2.80;;
12840;SDS011;6487;48.626;12.486;2023-11-21T02:07:53;5.20;;;2.40;;
12840;SDS011;6487;48.626;12.486;2023-11-21T02:10:23;6.53;;;2.90;;
12840;SDS011;6487;48.626;12.486;2023-11-21T02:12:52;3.33;;;2.47;;
12840;SDS011;6487;48.626;12.486;2023-11-21T02:15:22;6.13;;;2.20;;
12840;SDS011;6487;48.626;12.486;2023-11-21T02:17:53;5.80;;;2.43;;
12840;SDS011;6487;48.626;12.486;2023-11-21T02:20:22;6.00;;;2.33;;
12840;SDS011;6487;48.626;12.486;2023-11-21T02:22:53;8.33;;;2.30;;
12840;SDS011;6487;48.626;12.486;2023-11-21T02:25:26;5.73;;;2.40;;
12840;SDS011;6487;48.626;12.486;2023-11-21T02:27:56;7.83;;;2.50;;
12840;SDS011;6487;48.626;12.486;2023-11-21T02:30:27;4.47;;;2.33;;
12840;SDS011;6487;48.626;12.486;2023-11-21T02:32:58;3.80;;;2.13;;
12840;SDS011;6487;48.626;12.486;2023-11-21T02:35:28;5.83;;;2.30;;
12840;SDS011;6487;48.626;12.486;2023-11-21T02:38:00;6.97;;;2.43;;
12840;SDS011;6487;48.626;12.486;2023-11-21T02:40:28;3.77;;;1.90;;
12840;SDS011;6487;48.626;12.486;2023-11-21T02:42:57;3.57;;;2.33;;
12840;SDS011;6487;48.626;12.486;2023-11-21T02:45:26;4.47;;;2.10;;
12840;SDS011;6487;48.626;12.486;2023-11-21T02:47:55;4.43;;;1.90;;
12840;SDS011;6487;48.626;12.486;2023-11-21T02:50:25;5.53;;;2.10;;
12840;SDS011;6487;48.626;12.486;2023-11-21T02:52:54;4.60;;;2.10;;
12840;SDS011;6487;48.626;12.486;2023-11-21T02:55:25;5.90;;;2.07;;
12840;SDS011;6487;48.626;12.486;2023-11-21T02:57:54;7.83;;;2.63;;
12840;SDS011;6487;48.626;12.486;2023-11-21T03:00:24;3.67;;;2.23;;
12840;SDS011;6487;48.626;12.486;2023-11-21T03:02:54;4.80;;;2.07;;
12840;SDS011;6487;48.626;12.486;2023-11-21T03:05:24;4.23;;;2.13;;
12840;SDS011;6487;48.626;12.486;2023-11-21T03:07:52;2.90;;;1.93;;
12840;SDS011;6487;48.626;12.486;2023-11-21T03:10:21;3.50;;;1.80;;
12840;SDS011;6487;48.626;12.486;2023-11-21T03:12:51;3.87;;;2.13;;
12840;SDS011;6487;48.626;12.486;2023-11-21T03:15:20;6.20;;;2.30;;
12840;SDS011;6487;48.626;12.486;2023-11-21T03:17:48;7.27;;;1.90;;
12840;SDS011;6487;48.626;12.486;2023-11-21T03:20:17;3.10;;;2.30;;
12840;SDS011;6487;48.626;12.486;2023-11-21T03:22:45;4.27;;;2.20;;
12840;SDS011;6487;48.626;12.486;2023-11-21T03:25:14;6.13;;;2.70;;
12840;SDS011;6487;48.626;12.486;2023-11-21T03:27:43;6.13;;;2.60;;
12840;SDS011;6487;48.626;12.486;2023-11-21T03:30:13;4.03;;;1.97;;
12840;SDS011;6487;48.626;12.486;2023-11-21T03:32:43;3.53;;;2.60;;
12840;SDS011;6487;48.626;12.486;2023-11-21T03:35:11;6.10;;;2.60;;
12840;SDS011;6487;48.626;12.486;2023-11-21T03:37:40;5.80;;;2.13;;
12840;SDS011;6487;48.626;12.486;2023-11-21T03:40:10;4.10;;;2.37;;
12840;SDS011;6487;48.626;12.486;2023-11-21T03:42:40;5.00;;;2.30;;
12840;SDS011;6487;48.626;12.486;2023-11-21T03:45:09;4.40;;;2.17;;
12840;SDS011;6487;48.626;12.486;2023-11-21T03:47:40;3.90;;;1.90;;
12840;SDS011;6487;48.626;12.486;2023-11-21T03:50:10;4.67;;;2.70;;
12840;SDS011;6487;48.626;12.486;2023-11-21T03:52:38;7.57;;;1.97;;
12840;SDS011;6487;48.626;12.486;2023-11-21T03:55:07;2.70;;;1.80;;
12840;SDS011;6487;48.626;12.486;2023-11-21T03:57:38;8.03;;;2.13;;
12840;SDS011;6487;48.626;12.486;2023-11-21T04:00:07;6.13;;;1.80;;
12840;SDS011;6487;48.626;12.486;2023-11-21T04:02:36;4.17;;;2.37;;
12840;SDS011;6487;48.626;12.486;2023-11-21T04:05:07;5.20;;;2.10;;
12840;SDS011;6487;48.626;12.486;2023-11-21T04:07:36;3.07;;;1.90;;
12840;SDS011;6487;48.626;12.486;2023-11-21T04:10:06;3.33;;;1.83;;
12840;SDS011;6487;48.626;12.486;2023-11-21T04:12:36;5.20;;;1.80;;
12840;SDS011;6487;48.626;12.486;2023-11-21T04:15:05;3.13;;;1.70;;
12840;SDS011;6487;48.626;12.486;2023-11-21T04:17:36;5.10;;;2.00;;
12840;SDS011;6487;48.626;12.486;2023-11-21T04:20:04;4.43;;;2.60;;
12840;SDS011;6487;48.626;12.486;2023-11-21T04:22:37;4.03;;;2.70;;
12840;SDS011;6487;48.626;12.486;2023-11-21T04:25:11;6.83;;;3.30;;
12840;SDS011;6487;48.626;12.486;2023-11-21T04:27:41;4.73;;;2.70;;
12840;SDS011;6487;48.626;12.486;2023-11-21T04:30:11;6.47;;;3.00;;
12840;SDS011;6487;48.626;12.486;2023-11-21T04:32:41;5.80;;;2.60;;
12840;SDS011;6487;48.626;12.486;2023-11-21T04:35:11;3.17;;;2.27;;
12840;SDS011;6487;48.626;12.486;2023-11-21T04:37:39;5.10;;;3.00;;
12840;SDS011;6487;48.626;12.486;2023-11-21T04:40:08;6.10;;;3.40;;
12840;SDS011;6487;48.626;12.486;2023-11-21T04:42:39;8.47;;;3.13;;
12840;SDS011;6487;48.626;12.486;2023-11-21T04:45:08;8.73;;;3.17;;
12840;SDS011;6487;48.626;12.486;2023-11-21T04:47:39;6.90;;;3.47;;
12840;SDS011;6487;48.626;12.486;2023-11-21T04:50:08;6.10;;;3.33;;
12840;SDS011;6487;48.626;12.486;2023-11-21T04:52:39;7.47;;;3.53;;
12840;SDS011;6487;48.626;12.486;2023-11-21T04:55:07;7.83;;;3.43;;
12840;SDS011;6487;48.626;12.486;2023-11-21T04:57:37;5.70;;;3.40;;
12840;SDS011;6487;48.626;12.486;2023-11-21T05:00:08;5.87;;;3.43;;
12840;SDS011;6487;48.626;12.486;2023-11-21T05:02:39;4.63;;;3.13;;
12840;SDS011;6487;48.626;12.486;2023-11-21T05:05:09;5.93;;;3.40;;
12840;SDS011;6487;48.626;12.486;2023-11-21T05:07:40;4.73;;;2.70;;
12840;SDS011;6487;48.626;12.486;2023-11-21T05:10:09;6.03;;;2.80;;
12840;SDS011;6487;48.626;12.486;2023-11-21T05:12:41;5.53;;;3.00;;
12840;SDS011;6487;48.626;12.486;2023-11-21T05:15:12;5.40;;;3.07;;
12840;SDS011;6487;48.626;12.486;2023-11-21T05:17:43;4.60;;;2.90;;
12840;SDS011;6487;48.626;12.486;2023-11-21T05:20:13;3.70;;;3.10;;
12840;SDS011;6487;48.626;12.486;2023-11-21T05:22:48;6.57;;;3.23;;
12840;SDS011;6487;48.626;12.486;2023-11-21T05:25:17;2.40;;;2.10;;
12840;SDS011;6487;48.626;12.486;2023-11-21T05:27:46;3.07;;;2.50;;
12840;SDS011;6487;48.626;12.486;2023-11-21T05:30:15;5.17;;;2.57;;
12840;SDS011;6487;48.626;12.486;2023-11-21T05:32:43;5.97;;;2.60;;
12840;SDS011;6487;48.626;12.486;2023-11-21T05:35:13;4.20;;;2.70;;
12840;SDS011;6487;48.626;12.486;2023-11-21T05:37:43;5.63;;;2.80;;
12840;SDS011;6487;48.626;12.486;2023-11-21T05:40:15;3.80;;;2.50;;
12840;SDS011;6487;48.626;12.486;2023-11-21T05:42:44;5.87;;;2.40;;
12840;SDS011;6487;48.626;12.486;2023-11-21T05:45:13;4.43;;;2.30;;
12840;SDS011;6487;48.626;12.486;2023-11-21T05:47:42;3.20;;;2.27;;
12840;SDS011;6487;48.626;12.486;2023-11-21T05:50:14;4.77;;;2.77;;
12840;SDS011;6487;48.626;12.486;2023-11-21T05:52:44;5.33;;;3.20;;
12840;SDS011;6487;48.626;12.486;2023-11-21T05:55:15;5.20;;;2.93;;
12840;SDS011;6487;48.626;12.486;2023-11-21T05:57:45;5.33;;;2.53;;
12840;SDS011;6487;48.626;12.486;2023-11-21T06:00:14;6.27;;;2.47;;
12840;SDS011;6487;48.626;12.486;2023-11-21T06:02:48;4.73;;;2.73;;
12840;SDS011;6487;48.626;12.486;2023-11-21T06:05:21;5.27;;;2.43;;
12840;SDS011;6487;48.626;12.486;2023-11-21T06:07:52;5.03;;;2.50;;
12840;SDS011;6487;48.626;12.486;2023-11-21T06:10:26;3.17;;;2.37;;
12840;SDS011;6487;48.626;12.486;2023-11-21T06:12:56;4.33;;;2.40;;
12840;SDS011;6487;48.626;12.486;2023-11-21T06:15:29;4.03;;;2.37;;
12840;SDS011;6487;48.626;12.486;2023-11-21T06:17:57;5.77;;;2.37;;
12840;SDS011;6487;48.626;12.486;2023-11-21T06:20:26;4.00;;;2.53;;
12840;SDS011;6487;48.626;12.486;2023-11-21T06:22:55;5.67;;;2.70;;
12840;SDS011;6487;48.626;12.486;2023-11-21T06:25:23;4.70;;;2.80;;
12840;SDS011;6487;48.626;12.486;2023-11-21T06:27:53;4.47;;;2.83;;
12840;SDS011;6487;48.626;12.486;2023-11-21T06:30:22;5.43;;;2.60;;
12840;SDS011;6487;48.626;12.486;2023-11-21T06:32:51;4.50;;;2.70;;
12840;SDS011;6487;48.626;12.486;2023-11-21T06:35:20;4.93;;;2.80;;
12840;SDS011;6487;48.626;12.486;2023-11-21T06:37:49;4.17;;;2.23;;
12840;SDS011;6487;48.626;12.486;2023-11-21T06:40:18;3.80;;;2.80;;
12840;SDS011;6487;48.626;12.486;2023-11-21T06:42:48;2.93;;;2.43;;
12840;SDS011;6487;48.626;12.486;2023-11-21T06:45:18;2.93;;;2.40;;
12840;SDS011;6487;48.626;12.486;2023-11-21T06:47:48;2.97;;;2.63;;
12840;SDS011;6487;48.626;12.486;2023-11-21T06:50:17;3.30;;;2.90;;
12840;SDS011;6487;48.626;12.486;2023-11-21T06:52:46;3.60;;;2.87;;
12840;SDS011;6487;48.626;12.486;2023-11-21T06:55:15;7.33;;;3.80;;
12840;SDS011;6487;48.626;12.486;2023-11-21T06:57:43;5.77;;;3.87;;
12840;SDS011;6487;48.626;12.486;2023-11-21T07:00:13;5.83;;;3.50;;
12840;SDS011;6487;48.626;12.486;2023-11-21T07:02:47;7.90;;;5.10;;
12840;SDS011;6487;48.626;12.486;2023-11-21T07:05:16;8.93;;;5.23;;
12840;SDS011;6487;48.626;12.486;2023-11-21T07:07:48;5.83;;;5.00;;
12840;SDS011;6487;48.626;12.486;2023-11-21T07:10:19;4.60;;;3.97;;
12840;SDS011;6487;48.626;12.486;2023-11-21T07:12:47;4.73;;;4.00;;
12840;SDS011;6487;48.626;12.486;2023-11-21T07:15:17;3.97;;;3.57;;
12840;SDS011;6487;48.626;12.486;2023-11-21T07:17:47;5.10;;;4.43;;
12840;SDS011;6487;48.626;12.486;2023-11-21T07:20:16;4.53;;;4.10;;
12840;SDS011;6487;48.626;12.486;2023-11-21T07:22:44;7.87;;;4.80;;
12840;SDS011;6487;48.626;12.486;2023-11-21T07:25:13;8.13;;;4.70;;
12840;SDS011;6487;48.626;12.486;2023-11-21T07:27:42;5.23;;;4.73;;
12840;SDS011;6487;48.626;12.486;2023-11-21T07:30:12;5.53;;;4.40;;
12840;SDS011;6487;48.626;12.486;2023-11-21T07:32:41;6.63;;;4.53;;
12840;SDS011;6487;48.626;12.486;2023-11-21T07:35:14;4.80;;;3.80;;
12840;SDS011;6487;48.626;12.486;2023-11-21T07:37:46;7.50;;;4.07;;
12840;SDS011;6487;48.626;12.486;2023-11-21T07:40:15;5.37;;;3.47;;
12840;SDS011;6487;48.626;12.486;2023-11-21T07:42:44;6.60;;;3.90;;
12840;SDS011;6487;48.626;12.486;2023-11-21T07:45:13;4.60;;;2.90;;
12840;SDS011;6487;48.626;12.486;2023-11-21T07:47:42;5.30;;;3.20;;
12840;SDS011;6487;48.626;12.486;2023-11-21T07:50:10;4.27;;;3.20;;
12840;SDS011;6487;48.626;12.486;2023-11-21T07:52:41;3.77;;;3.10;;
12840;SDS011;6487;48.626;12.486;2023-11-21T07:55:10;7.40;;;3.43;;
12840;SDS011;6487;48.626;12.486;2023-11-21T07:57:38;6.00;;;3.70;;
12840;SDS011;6487;48.626;12.486;2023-11-21T08:00:07;4.73;;;3.43;;
12840;SDS011;6487;48.626;12.486;2023-11-21T08:02:38;7.07;;;3.67;;
12840;SDS011;6487;48.626;12.486;2023-11-21T08:05:09;5.63;;;3.43;;
12840;SDS011;6487;48.626;12.486;2023-11-21T08:07:51;5.23;;;4.10;;
12840;SDS011;6487;48.626;12.486;2023-11-21T08:10:20;5.83;;;4.43;;
12840;SDS011;6487;48.626;12.486;2023-11-21T08:12:49;4.67;;;3.57;;
12840;SDS011;6487;48.626;12.486;2023-11-21T08:15:17;7.53;;;4.10;;
12840;SDS011;6487;48.626;12.486;2023-11-21T08:17:46;7.23;;;4.13;;
12840;SDS011;6487;48.626;12.486;2023-11-21T08:20:15;7.17;;;4.27;;
12840;SDS011;6487;48.626;12.486;2023-11-21T08:22:44;5.90;;;4.23;;
12840;SDS011;6487;48.626;12.486;2023-11-21T08:25:16;11.73;;;5.27;;
12840;SDS011;6487;48.626;12.486;2023-11-21T08:27:46;6.27;;;4.53;;
12840;SDS011;6487;48.626;12.486;2023-11-21T08:30:15;8.20;;;4.83;;
12840;SDS011;6487;48.626;12.486;2023-11-21T08:32:46;10.97;;;5.47;;
12840;SDS011;6487;48.626;12.486;2023-11-21T08:35:14;7.67;;;4.90;;
12840;SDS011;6487;48.626;12.486;2023-11-21T08:37:43;8.77;;;5.37;;
12840;SDS011;6487;48.626;12.486;2023-11-21T08:40:12;9.77;;;6.07;;
12840;SDS011;6487;48.626;12.486;2023-11-21T08:42:45;7.77;;;5.20;;
12840;SDS011;6487;48.626;12.486;2023-11-21T08:45:13;8.07;;;4.97;;
12840;SDS011;6487;48.626;12.486;2023-11-21T08:47:44;7.30;;;5.90;;
12840;SDS011;6487;48.626;12.486;2023-11-21T08:50:13;11.47;;;6.17;;
12840;SDS011;6487;48.626;12.486;2023-11-21T08:52:42;7.27;;;5.37;;
12840;SDS011;6487;48.626;12.486;2023-11-21T08:55:12;7.30;;;5.60;;
12840;SDS011;6487;48.626;12.486;2023-11-21T08:57:43;8.87;;;4.93;;
12840;SDS011;6487;48.626;12.486;2023-11-21T09:00:13;6.60;;;4.80;;
12840;SDS011;6487;48.626;12.486;2023-11-21T09:02:43;9.10;;;5.03;;
12840;SDS011;6487;48.626;12.486;2023-11-21T09:05:13;8.37;;;5.10;;
12840;SDS011;6487;48.626;12.486;2023-11-21T09:07:43;6.83;;;5.20;;
12840;SDS011;6487;48.626;12.486;2023-11-21T09:10:12;7.13;;;4.83;;
12840;SDS011;6487;48.626;12.486;2023-11-21T09:12:41;7.93;;;4.90;;
12840;SDS011;6487;48.626;12.486;2023-11-21T09:15:11;5.67;;;4.80;;
12840;SDS011;6487;48.626;12.486;2023-11-21T09:17:41;6.47;;;5.17;;
12840;SDS011;6487;48.626;12.486;2023-11-21T09:20:11;7.67;;;4.90;;
12840;SDS011;6487;48.626;12.486;2023-11-21T09:22:41;6.93;;;4.87;;
12840;SDS011;6487;48.626;12.486;2023-11-21T09:25:11;9.50;;;5.03;;
12840;SDS011;6487;48.626;12.486;2023-11-21T09:27:40;6.53;;;5.07;;
12840;SDS011;6487;48.626;12.486;2023-11-21T09:30:08;9.00;;;4.93;;
12840;SDS011;6487;48.626;12.486;2023-11-21T09:32:42;9.20;;;4.57;;
12840;SDS011;6487;48.626;12.486;2023-11-21T09:35:12;8.97;;;4.30;;
12840;SDS011;6487;48.626;12.486;2023-11-21T09:37:42;9.67;;;4.60;;
12840;SDS011;6487;48.626;12.486;2023-11-21T09:40:15;6.13;;;3.60;;
12840;SDS011;6487;48.626;12.486;2023-11-21T09:42:52;9.80;;;3.70;;
12840;SDS011;6487;48.626;12.486;2023-11-21T09:45:27;4.47;;;3.10;;
12840;SDS011;6487;48.626;12.486;2023-11-21T09:47:59;8.07;;;2.43;;
12840;SDS011;6487;48.626;12.486;2023-11-21T09:50:28;4.80;;;2.57;;
12840;SDS011;6487;48.626;12.486;2023-11-21T09:53:03;3.63;;;2.60;;
12840;SDS011;6487;48.626;12.486;2023-11-21T09:55:42;4.67;;;2.50;;
12840;SDS011;6487;48.626;12.486;2023-11-21T09:58:13;4.83;;;2.67;;
12840;SDS011;6487;48.626;12.486;2023-11-21T10:00:42;3.83;;;2.47;;
12840;SDS011;6487;48.626;12.486;2023-11-21T10:03:14;2.97;;;2.30;;
12840;SDS011;6487;48.626;12.486;2023-11-21T10:05:43;7.00;;;2.90;;
12840;SDS011;6487;48.626;12.486;2023-11-21T10:08:13;4.63;;;2.80;;
12840;SDS011;6487;48.626;12.486;2023-11-21T10:10:42;3.87;;;2.80;;
12840;SDS011;6487;48.626;12.486;2023-11-21T10:13:14;4.20;;;2.67;;
12840;SDS011;6487;48.626;12.486;2023-11-21T10:15:47;5.93;;;3.77;;
12840;SDS011;6487;48.626;12.486;2023-11-21T10:18:21;4.13;;;2.77;;
12840;SDS011;6487;48.626;12.486;2023-11-21T10:20:51;3.77;;;3.13;;
12840;SDS011;6487;48.626;12.486;2023-11-21T10:23:22;6.37;;;3.90;;
12840;SDS011;6487;48.626;12.486;2023-11-21T10:25:51;4.60;;;3.20;;
12840;SDS011;6487;48.626;12.486;2023-11-21T10:28:25;5.27;;;2.97;;
12840;SDS011;6487;48.626;12.486;2023-11-21T10:30:54;6.43;;;3.40;;
12840;SDS011;6487;48.626;12.486;2023-11-21T10:33:28;4.60;;;3.00;;
12840;SDS011;6487;48.626;12.486;2023-11-21T10:35:56;4.33;;;3.50;;
12840;SDS011;6487;48.626;12.486;2023-11-21T10:38:27;4.87;;;3.10;;
12840;SDS011;6487;48.626;12.486;2023-11-21T10:40:56;5.53;;;3.33;;
12840;SDS011;6487;48.626;12.486;2023-11-21T10:43:26;4.93;;;3.13;;
12840;SDS011;6487;48.626;12.486;2023-11-21T10:45:57;5.00;;;3.37;;
12840;SDS011;6487;48.626;12.486;2023-11-21T10:48:28;6.43;;;3.27;;
12840;SDS011;6487;48.626;12.486;2023-11-21T10:50:56;6.57;;;3.03;;
12840;SDS011;6487;48.626;12.486;2023-11-21T10:53:28;4.33;;;3.37;;
12840;SDS011;6487;48.626;12.486;2023-11-21T10:56:01;4.67;;;3.10;;
12840;SDS011;6487;48.626;12.486;2023-11-21T10:58:34;4.97;;;3.20;;
12840;SDS011;6487;48.626;12.486;2023-11-21T11:01:05;5.30;;;3.37;;
12840;SDS011;6487;48.626;12.486;2023-11-21T11:03:39;4.60;;;3.50;;
12840;SDS011;6487;48.626;12.486;2023-11-21T11:06:09;5.83;;;3.50;;
12840;SDS011;6487;48.626;12.486;2023-11-21T11:08:39;4.17;;;3.40;;
12840;SDS011;6487;48.626;12.486;2023-11-21T11:11:09;3.57;;;3.27;;
12840;SDS011;6487;48.626;12.486;2023-11-21T11:13:38;4.83;;;3.73;;
12840;SDS011;6487;48.626;12.486;2023-11-21T11:16:11;8.40;;;5.63;;
12840;SDS011;6487;48.626;12.486;2023-11-21T11:18:45;7.03;;;5.43;;
12840;SDS011;6487;48.626;12.486;2023-11-21T11:21:20;6.47;;;4.67;;
12840;SDS011;6487;48.626;12.486;2023-11-21T11:24:01;4.87;;;3.40;;
12840;SDS011;6487;48.626;12.486;2023-11-21T11:26:46;4.47;;;3.70;;
12840;SDS011;6487;48.626;12.486;2023-11-21T11:29:23;5.73;;;4.07;;
12840;SDS011;6487;48.626;12.486;2023-11-21T11:32:03;6.27;;;3.37;;
12840;SDS011;6487;48.626;12.486;2023-11-21T11:34:44;4.33;;;3.50;;
12840;SDS011;6487;48.626;12.486;2023-11-21T11:37:20;4.47;;;2.77;;
12840;SDS011;6487;48.626;12.486;2023-11-21T11:39:50;5.23;;;3.43;;
12840;SDS011;6487;48.626;12.486;2023-11-21T11:42:21;3.17;;;2.70;;
12840;SDS011;6487;48.626;12.486;2023-11-21T11:44:51;5.40;;;3.10;;
12840;SDS011;6487;48.626;12.486;2023-11-21T11:47:23;2.97;;;2.70;;
12840;SDS011;6487;48.626;12.486;2023-11-21T11:50:10;4.30;;;2.80;;
12840;SDS011;6487;48.626;12.486;2023-11-21T11:52:44;3.07;;;2.63;;
12840;SDS011;6487;48.626;12.486;2023-11-21T11:55:15;5.17;;;2.90;;
12840;SDS011;6487;48.626;12.486;2023-11-21T11:57:45;5.30;;;3.87;;
12840;SDS011;6487;48.626;12.486;2023-11-21T12:00:18;4.33;;;2.73;;
12840;SDS011;6487;48.626;12.486;2023-11-21T12:02:52;4.70;;;3.57;;
12840;SDS011;6487;48.626;12.486;2023-11-21T12:05:25;5.57;;;3.20;;
12840;SDS011;6487;48.626;12.486;2023-11-21T12:07:55;3.33;;;3.00;;
12840;SDS011;6487;48.626;12.486;2023-11-21T12:10:26;3.17;;;2.70;;
12840;SDS011;6487;48.626;12.486;2023-11-21T12:12:56;4.07;;;3.00;;
12840;SDS011;6487;48.626;12.486;2023-11-21T12:15:28;3.17;;;2.90;;
12840;SDS011;6487;48.626;12.486;2023-11-21T12:17:57;4.37;;;3.03;;
12840;SDS011;6487;48.626;12.486;2023-11-21T12:20:28;4.10;;;2.63;;
12840;SDS011;6487;48.626;12.486;2023-11-21T12:22:57;4.57;;;3.17;;
12840;SDS011;6487;48.626;12.486;2023-11-21T12:25:30;3.83;;;2.93;;
12840;SDS011;6487;48.626;12.486;2023-11-21T12:28:01;4.90;;;3.30;;
12840;SDS011;6487;48.626;12.486;2023-11-21T12:30:30;5.00;;;4.00;;
12840;SDS011;6487;48.626;12.486;2023-11-21T12:33:02;5.10;;;4.60;;
12840;SDS011;6487;48.626;12.486;2023-11-21T12:35:34;5.47;;;4.50;;
12840;SDS011;6487;48.626;12.486;2023-11-21T12:38:04;5.33;;;4.20;;
12840;SDS011;6487;48.626;12.486;2023-11-21T12:40:35;3.73;;;3.43;;
12840;SDS011;6487;48.626;12.486;2023-11-21T12:43:04;4.43;;;3.73;;
12840;SDS011;6487;48.626;12.486;2023-11-21T12:45:34;4.93;;;4.33;;
12840;SDS011;6487;48.626;12.486;2023-11-21T12:48:05;5.13;;;4.40;;
12840;SDS011;6487;48.626;12.486;2023-11-21T12:50:37;4.53;;;4.10;;
12840;SDS011;6487;48.626;12.486;2023-11-21T12:53:07;6.33;;;5.03;;
12840;SDS011;6487;48.626;12.486;2023-11-21T12:55:39;3.47;;;3.17;;
12840;SDS011;6487;48.626;12.486;2023-11-21T12:58:09;4.23;;;2.93;;
12840;SDS011;6487;48.626;12.486;2023-11-21T13:00:40;4.37;;;2.87;;
12840;SDS011;6487;48.626;12.486;2023-11-21T13:03:11;4.83;;;3.20;;
12840;SDS011;6487;48.626;12.486;2023-11-21T13:05:46;4.23;;;3.83;;
12840;SDS011;6487;48.626;12.486;2023-11-21T13:08:18;4.83;;;3.87;;
12840;SDS011;6487;48.626;12.486;2023-11-21T13:10:51;5.07;;;3.60;;
12840;SDS011;6487;48.626;12.486;2023-11-21T13:13:24;3.83;;;3.47;;
12840;SDS011;6487;48.626;12.486;2023-11-21T13:15:55;5.60;;;3.40;;
12840;SDS011;6487;48.626;12.486;2023-11-21T13:18:28;5.17;;;3.07;;
12840;SDS011;6487;48.626;12.486;2023-11-21T13:20:59;5.33;;;4.63;;
12840;SDS011;6487;48.626;12.486;2023-11-21T13:23:34;5.60;;;4.23;;
12840;SDS011;6487;48.626;12.486;2023-11-21T13:26:05;5.20;;;4.70;;
12840;SDS011;6487;48.626;12.486;2023-11-21T13:28:35;6.17;;;5.23;;
12840;SDS011;6487;48.626;12.486;2023-11-21T13:31:05;4.70;;;4.17;;
12840;SDS011;6487;48.626;12.486;2023-11-21T13:33:47;5.10;;;4.27;;
12840;SDS011;6487;48.626;12.486;2023-11-21T13:36:24;5.67;;;3.60;;
12840;SDS011;6487;48.626;12.486;2023-11-21T13:38:57;6.90;;;4.93;;
12840;SDS011;6487;48.626;12.486;2023-11-21T13:41:31;14.67;;;11.43;;
12840;SDS011;6487;48.626;12.486;2023-11-21T13:43:59;9.73;;;7.00;;
12840;SDS011;6487;48.626;12.486;2023-11-21T13:46:41;7.20;;;4.90;;
12840;SDS011;6487;48.626;12.486;2023-11-21T13:49:10;4.50;;;4.10;;
12840;SDS011;6487;48.626;12.486;2023-11-21T13:51:41;9.17;;;6.93;;
12840;SDS011;6487;48.626;12.486;2023-11-21T13:54:12;29.20;;;17.00;;
12840;SDS011;6487;48.626;12.486;2023-11-21T13:56:41;10.70;;;8.50;;
12840;SDS011;6487;48.626;12.486;2023-11-21T13:59:11;16.70;;;11.07;;
12840;SDS011;6487;48.626;12.486;2023-11-21T14:01:47;15.50;;;10.63;;
12840;SDS011;6487;48.626;12.486;2023-11-21T14:04:24;8.77;;;6.43;;
12840;SDS011;6487;48.626;12.486;2023-11-21T14:07:15;5.70;;;4.20;;
12840;SDS011;6487;48.626;12.486;2023-11-21T14:09:56;4.03;;;3.30;;
12840;SDS011;6487;48.626;12.486;2023-11-21T14:12:25;4.37;;;3.80;;
12840;SDS011;6487;48.626;12.486;2023-11-21T14:14:54;5.63;;;3.57;;
12840;SDS011;6487;48.626;12.486;2023-11-21T14:17:23;4.07;;;3.53;;
12840;SDS011;6487;48.626;12.486;2023-11-21T14:19:51;5.10;;;3.50;;
12840;SDS011;6487;48.626;12.486;2023-11-21T14:22:23;4.57;;;2.93;;
12840;SDS011;6487;48.626;12.486;2023-11-21T14:24:53;3.90;;;3.50;;
12840;SDS011;6487;48.626;12.486;2023-11-21T14:27:25;5.20;;;4.00;;
12840;SDS011;6487;48.626;12.486;2023-11-21T14:29:53;7.03;;;3.50;;
12840;SDS011;6487;48.626;12.486;2023-11-21T14:32:23;4.37;;;3.80;;
12840;SDS011;6487;48.626;12.486;2023-11-21T14:34:52;5.77;;;4.30;;
12840;SDS011;6487;48.626;12.486;2023-11-21T14:37:21;5.17;;;3.80;;
12840;SDS011;6487;48.626;12.486;2023-11-21T14:39:51;13.33;;;7.70;;
12840;SDS011;6487;48.626;12.486;2023-11-21T14:42:22;13.53;;;8.90;;
12840;SDS011;6487;48.626;12.486;2023-11-21T14:44:56;9.77;;;5.40;;
12840;SDS011;6487;48.626;12.486;2023-11-21T14:47:29;8.83;;;4.60;;
12840;SDS011;6487;48.626;12.486;2023-11-21T14:49:59;4.80;;;3.60;;
12840;SDS011;6487;48.626;12.486;2023-11-21T14:52:42;3.77;;;3.47;;
12840;SDS011;6487;48.626;12.486;2023-11-21T14:55:23;3.33;;;2.57;;
12840;SDS011;6487;48.626;12.486;2023-11-21T14:57:58;3.53;;;3.00;;
12840;SDS011;6487;48.626;12.486;2023-11-21T15:00:30;5.33;;;3.57;;
12840;SDS011;6487;48.626;12.486;2023-11-21T15:03:07;5.03;;;4.53;;
12840;SDS011;6487;48.626;12.486;2023-11-21T15:05:36;5.47;;;4.80;;
12840;SDS011;6487;48.626;12.486;2023-11-21T15:08:06;5.83;;;5.03;;